createdAt,value
2022-12-18T00:00:43.617Z,-7.20
2022-12-18T00:04:43.769Z,-7.10
2022-12-18T00:08:47.847Z,-7.00
2022-12-18T00:12:48.003Z,-7.00
2022-12-18T00:16:49.597Z,-6.90
2022-12-18T00:20:49.683Z,-7.00
2022-12-18T00:24:52.364Z,-6.90
2022-12-18T00:28:53.747Z,-6.90
2022-12-18T00:36:54.403Z,-6.90
2022-12-18T00:40:58.555Z,-6.90
2022-12-18T00:44:58.610Z,-6.90
2022-12-18T00:48:58.720Z,-6.90
2022-12-18T00:52:58.972Z,-6.90
2022-12-18T00:57:02.049Z,-6.90
2022-12-18T01:01:02.278Z,-6.90
2022-12-18T01:05:02.830Z,-6.90
2022-12-18T01:09:03.422Z,-6.90
2022-12-18T01:13:06.334Z,-6.90
2022-12-18T01:17:06.476Z,-6.90
2022-12-18T01:21:12.476Z,-6.90
2022-12-18T01:25:13.063Z,-7.00
2022-12-18T01:29:15.861Z,-7.00
2022-12-18T01:33:16.263Z,-7.10
2022-12-18T01:37:16.432Z,-7.10
2022-12-18T01:41:19.422Z,-7.20
2022-12-18T01:45:35.491Z,-7.20
2022-12-18T01:49:36.063Z,-7.30
2022-12-18T01:53:37.008Z,-7.30
2022-12-18T01:57:38.568Z,-7.30
2022-12-18T02:01:42.056Z,-7.30
2022-12-18T02:05:51.023Z,-7.30
2022-12-18T02:10:01.349Z,-7.30
2022-12-18T02:14:19.499Z,-7.20
2022-12-18T02:18:27.933Z,-7.30
2022-12-18T02:22:39.175Z,-7.20
2022-12-18T02:26:49.817Z,-7.20
2022-12-18T02:30:54.761Z,-7.20
2022-12-18T02:34:59.505Z,-7.20
2022-12-18T02:39:05.274Z,-7.20
2022-12-18T02:43:17.022Z,-7.20
2022-12-18T02:47:21.119Z,-7.20
2022-12-18T02:51:32.968Z,-7.10
2022-12-18T02:55:56.058Z,-7.10
2022-12-18T03:00:08.692Z,-7.10
2022-12-18T03:04:19.262Z,-7.10
2022-12-18T03:08:26.006Z,-7.20
2022-12-18T03:12:35.087Z,-7.20
2022-12-18T03:16:40.678Z,-7.30
2022-12-18T03:20:46.098Z,-7.40
2022-12-18T03:24:52.747Z,-7.30
2022-12-18T03:28:57.374Z,-7.30
2022-12-18T03:33:11.644Z,-7.30
2022-12-18T03:37:16.045Z,-7.30
2022-12-18T03:41:29.530Z,-7.30
2022-12-18T03:46:06.383Z,-7.30
2022-12-18T03:50:19.195Z,-7.40
2022-12-18T03:54:23.929Z,-7.40
2022-12-18T03:58:34.428Z,-7.30
2022-12-18T04:02:52.538Z,-7.30
2022-12-18T04:07:01.995Z,-7.30
2022-12-18T04:11:02.356Z,-7.20
2022-12-18T04:15:02.932Z,-7.20
2022-12-18T04:19:03.530Z,-7.30
2022-12-18T04:23:11.721Z,-7.20
2022-12-18T04:27:13.597Z,-7.20
2022-12-18T04:31:18.203Z,-7.30
2022-12-18T04:35:18.680Z,-7.20
2022-12-18T04:39:21.931Z,-7.30
2022-12-18T04:43:24.376Z,-7.20
2022-12-18T04:47:24.542Z,-7.10
2022-12-18T04:51:26.704Z,-7.00
2022-12-18T04:55:32.738Z,-7.00
2022-12-18T04:59:33.007Z,-7.00
2022-12-18T05:03:33.172Z,-7.00
2022-12-18T05:07:33.416Z,-6.90
2022-12-18T05:11:36.289Z,-6.90
2022-12-18T05:15:37.575Z,-6.80
2022-12-18T05:19:38.192Z,-6.80
2022-12-18T05:23:39.446Z,-6.80
2022-12-18T05:27:42.479Z,-6.80
2022-12-18T05:31:43.008Z,-6.70
2022-12-18T05:35:44.622Z,-6.70
2022-12-18T05:39:46.083Z,-6.60
2022-12-18T05:43:48.890Z,-6.60
2022-12-18T05:47:48.933Z,-6.50
2022-12-18T05:51:49.142Z,-6.40
2022-12-18T05:55:50.295Z,-6.30
2022-12-18T05:59:53.042Z,-6.20
2022-12-18T06:03:53.263Z,-6.10
2022-12-18T06:07:53.422Z,-6.20
2022-12-18T06:11:56.374Z,-6.10
2022-12-18T06:15:59.059Z,-6.10
2022-12-18T06:19:59.200Z,-6.10
2022-12-18T06:23:59.444Z,-6.10
2022-12-18T06:27:59.502Z,-6.10
2022-12-18T06:32:02.579Z,-6.00
2022-12-18T06:36:06.355Z,-6.00
2022-12-18T06:40:07.453Z,-6.00
2022-12-18T06:44:07.914Z,-5.90
2022-12-18T06:48:11.035Z,-6.00
2022-12-18T06:52:11.291Z,-5.90
2022-12-18T06:56:11.746Z,-5.90
2022-12-18T07:00:13.542Z,-5.90
2022-12-18T07:04:16.353Z,-5.90
2022-12-18T07:08:16.450Z,-5.90
2022-12-18T07:12:16.555Z,-5.90
2022-12-18T07:16:24.810Z,-5.90
2022-12-18T07:20:28.277Z,-5.90
2022-12-18T07:24:28.485Z,-5.90
2022-12-18T07:28:28.584Z,-5.90
2022-12-18T07:32:28.662Z,-5.90
2022-12-18T07:36:31.654Z,-5.80
2022-12-18T07:40:31.800Z,-5.80
2022-12-18T07:44:31.904Z,-5.80
2022-12-18T07:48:32.613Z,-5.80
2022-12-18T07:52:35.388Z,-5.70
2022-12-18T07:56:35.524Z,-5.70
2022-12-18T08:00:35.672Z,-5.70
2022-12-18T08:04:35.766Z,-5.70
2022-12-18T08:08:39.314Z,-5.60
2022-12-18T08:12:39.540Z,-5.70
2022-12-18T08:16:40.675Z,-5.50
2022-12-18T08:20:42.976Z,-5.50
2022-12-18T08:24:45.896Z,-5.50
2022-12-18T08:28:46.558Z,-5.50
2022-12-18T08:32:46.689Z,-5.50
2022-12-18T08:36:46.777Z,-5.40
2022-12-18T08:40:49.689Z,-5.30
2022-12-18T08:44:49.846Z,-5.20
2022-12-18T08:48:50.804Z,-5.10
2022-12-18T08:52:50.974Z,-5.00
2022-12-18T08:56:53.615Z,-5.00
2022-12-18T09:00:53.760Z,-5.00
2022-12-18T09:04:57.297Z,-5.00
2022-12-18T09:08:57.967Z,-5.00
2022-12-18T09:13:00.679Z,-4.90
2022-12-18T09:17:00.853Z,-4.90
2022-12-18T09:21:01.043Z,-4.90
2022-12-18T09:25:01.104Z,-4.90
2022-12-18T09:29:04.656Z,-4.90
2022-12-18T09:33:04.749Z,-4.90
2022-12-18T09:37:07.110Z,-4.90
2022-12-18T09:41:29.444Z,-4.90
2022-12-18T09:45:42.250Z,-4.90
2022-12-18T09:49:48.846Z,-4.80
2022-12-18T09:53:56.299Z,-4.60
2022-12-18T09:58:03.331Z,-4.70
2022-12-18T10:02:22.463Z,-4.60
2022-12-18T10:06:31.022Z,-4.50
2022-12-18T10:10:41.825Z,-4.50
2022-12-18T10:14:54.706Z,-4.60
2022-12-18T10:19:21.718Z,-4.70
2022-12-18T10:23:35.496Z,-4.50
2022-12-18T10:27:35.895Z,-4.50
2022-12-18T10:31:36.824Z,-4.40
2022-12-18T10:35:41.347Z,-4.40
2022-12-18T10:39:41.665Z,-4.50
2022-12-18T10:43:44.232Z,-4.40
2022-12-18T10:47:49.399Z,-4.40
2022-12-18T10:51:52.836Z,-4.50
2022-12-18T10:55:54.766Z,-4.40
2022-12-18T10:59:57.979Z,-4.30
2022-12-18T11:04:11.485Z,-4.20
2022-12-18T11:08:25.620Z,-4.20
2022-12-18T11:12:27.476Z,-4.10
2022-12-18T11:16:27.880Z,-3.90
2022-12-18T11:20:37.675Z,-3.80
2022-12-18T11:24:41.483Z,-4.00
2022-12-18T11:28:47.407Z,-3.90
2022-12-18T11:32:51.009Z,-4.00
2022-12-18T11:36:52.369Z,-3.90
2022-12-18T11:41:04.197Z,-3.80
2022-12-18T11:45:24.050Z,-3.70
2022-12-18T11:49:30.637Z,-3.70
2022-12-18T11:53:33.691Z,-3.70
2022-12-18T11:57:52.272Z,-3.70
2022-12-18T12:01:58.978Z,-3.60
2022-12-18T12:06:16.126Z,-3.60
2022-12-18T12:10:41.851Z,-3.60
2022-12-18T12:14:57.291Z,-3.50
2022-12-18T12:19:26.922Z,-3.50
2022-12-18T12:23:39.883Z,-3.60
2022-12-18T12:27:53.746Z,-3.50
2022-12-18T12:32:15.131Z,-3.40
2022-12-18T12:36:37.746Z,-3.20
2022-12-18T12:40:53.771Z,-3.20
2022-12-18T12:45:03.223Z,-3.10
2022-12-18T12:49:13.461Z,-3.20
2022-12-18T12:53:27.584Z,-3.30
2022-12-18T12:57:37.370Z,-3.50
2022-12-18T13:01:52.495Z,-3.60
2022-12-18T13:06:04.210Z,-3.60
2022-12-18T13:10:37.868Z,-3.60
2022-12-18T13:14:42.341Z,-3.70
2022-12-18T13:18:42.875Z,-3.60
2022-12-18T13:22:51.267Z,-3.50
2022-12-18T13:26:51.568Z,-3.60
2022-12-18T13:30:58.400Z,-3.70
2022-12-18T13:35:41.984Z,-3.60
2022-12-18T13:39:44.871Z,-3.70
2022-12-18T13:43:50.606Z,-3.70
2022-12-18T13:47:52.430Z,-3.80
2022-12-18T13:51:56.714Z,-3.90
2022-12-18T13:56:00.563Z,-3.90
2022-12-18T14:00:01.557Z,-3.90
2022-12-18T14:04:14.991Z,-4.00
2022-12-18T14:08:18.975Z,-4.10
2022-12-18T14:12:39.229Z,-4.10
2022-12-18T14:16:40.649Z,-4.10
2022-12-18T14:20:52.681Z,-4.20
2022-12-18T14:25:19.642Z,-4.20
2022-12-18T14:29:30.106Z,-4.30
2022-12-18T14:33:31.746Z,-4.40
2022-12-18T14:37:32.196Z,-4.50
2022-12-18T14:41:34.117Z,-4.50
2022-12-18T14:45:47.241Z,-4.50
2022-12-18T14:49:48.282Z,-4.60
2022-12-18T14:53:54.937Z,-4.60
2022-12-18T14:57:59.621Z,-4.70
2022-12-18T15:02:12.291Z,-4.70
2022-12-18T15:06:31.616Z,-4.80
2022-12-18T15:10:34.249Z,-4.80
2022-12-18T15:14:43.191Z,-4.90
2022-12-18T15:18:49.047Z,-4.80
2022-12-18T15:22:51.869Z,-4.80
2022-12-18T15:26:52.084Z,-4.90
2022-12-18T15:31:27.257Z,-5.00
2022-12-18T15:35:30.034Z,-5.10
2022-12-18T15:39:30.454Z,-5.20
2022-12-18T15:43:40.503Z,-5.20
2022-12-18T15:47:40.857Z,-5.30
2022-12-18T15:51:43.750Z,-5.50
2022-12-18T15:56:01.385Z,-5.60
2022-12-18T16:00:01.757Z,-5.70
2022-12-18T16:04:05.061Z,-5.90
2022-12-18T16:08:08.192Z,-6.00
2022-12-18T16:12:09.142Z,-6.10
2022-12-18T16:16:12.442Z,-6.10
2022-12-18T16:20:18.421Z,-6.10
2022-12-18T16:24:24.955Z,-6.10
2022-12-18T16:28:25.197Z,-6.20
2022-12-18T16:32:26.319Z,-6.30
2022-12-18T16:36:26.480Z,-6.30
2022-12-18T16:40:29.195Z,-6.50
2022-12-18T16:44:30.089Z,-6.50
2022-12-18T16:48:30.388Z,-6.50
2022-12-18T16:52:34.951Z,-6.70
2022-12-18T16:56:38.073Z,-6.70
2022-12-18T17:00:41.604Z,-6.70
2022-12-18T17:04:42.037Z,-6.70
2022-12-18T17:08:42.115Z,-6.80
2022-12-18T17:12:45.113Z,-6.80
2022-12-18T17:16:45.791Z,-6.80
2022-12-18T17:20:46.050Z,-6.70
2022-12-18T17:24:46.123Z,-6.60
2022-12-18T17:28:48.775Z,-6.60
2022-12-18T17:32:48.949Z,-6.60
2022-12-18T17:36:49.118Z,-6.60
2022-12-18T17:40:49.227Z,-6.60
2022-12-18T17:44:53.651Z,-6.50
2022-12-18T17:48:54.610Z,-6.50
2022-12-18T17:52:58.954Z,-6.50
2022-12-18T17:56:59.033Z,-6.50
2022-12-18T18:01:05.472Z,-6.60
2022-12-18T18:05:05.735Z,-6.70
2022-12-18T18:09:06.004Z,-6.70
2022-12-18T18:13:21.820Z,-6.80
2022-12-18T18:17:24.593Z,-6.90
2022-12-18T18:21:24.785Z,-7.00
2022-12-18T18:25:25.611Z,-7.00
2022-12-18T18:29:30.360Z,-7.00
2022-12-18T18:33:33.298Z,-7.10
2022-12-18T18:37:33.538Z,-7.10
2022-12-18T18:41:33.659Z,-7.20
2022-12-18T18:45:34.755Z,-7.20
2022-12-18T18:49:37.450Z,-7.20
2022-12-18T18:53:41.018Z,-7.20
2022-12-18T18:57:42.189Z,-7.30
2022-12-18T19:01:42.551Z,-7.30
2022-12-18T19:05:47.618Z,-7.40
2022-12-18T19:09:51.992Z,-7.40
2022-12-18T19:13:52.316Z,-7.50
2022-12-18T19:17:52.978Z,-7.50
2022-12-18T19:21:56.031Z,-7.50
2022-12-18T19:26:17.032Z,-7.40
2022-12-18T19:30:17.036Z,-7.50
2022-12-18T19:34:17.228Z,-7.50
2022-12-18T19:38:20.096Z,-7.50
2022-12-18T19:42:26.234Z,-7.60
2022-12-18T19:46:29.839Z,-7.60
2022-12-18T19:50:30.319Z,-7.70
2022-12-18T19:54:35.536Z,-7.70
2022-12-18T19:58:36.040Z,-7.70
2022-12-18T20:02:37.188Z,-7.70
2022-12-18T20:06:48.285Z,-7.70
2022-12-18T20:10:51.409Z,-7.60
2022-12-18T20:14:51.746Z,-7.70
2022-12-18T20:18:52.434Z,-7.60
2022-12-18T20:22:52.995Z,-7.60
2022-12-18T20:26:56.600Z,-7.60
2022-12-18T20:31:03.084Z,-7.60
2022-12-18T20:35:04.101Z,-7.60
2022-12-18T20:39:13.502Z,-7.70
2022-12-18T20:43:21.355Z,-7.70
2022-12-18T20:47:21.936Z,-7.70
2022-12-18T20:51:24.247Z,-7.70
2022-12-18T20:55:24.623Z,-7.80
2022-12-18T20:59:29.046Z,-7.80
2022-12-18T21:03:29.517Z,-7.70
2022-12-18T21:07:29.869Z,-7.80
2022-12-18T21:11:46.909Z,-7.70
2022-12-18T21:15:49.862Z,-7.80
2022-12-18T21:19:50.076Z,-7.70
2022-12-18T21:23:51.320Z,-7.80
2022-12-18T21:27:51.652Z,-7.80
2022-12-18T21:31:56.135Z,-7.80
2022-12-18T21:35:56.269Z,-7.80
2022-12-18T21:39:56.425Z,-7.90
2022-12-18T21:44:08.589Z,-7.80
2022-12-18T21:48:12.408Z,-7.80
2022-12-18T21:52:12.502Z,-7.90
2022-12-18T21:56:12.649Z,-7.90
2022-12-18T22:00:18.752Z,-7.90
2022-12-18T22:04:24.933Z,-7.90
2022-12-18T22:08:25.923Z,-7.90
2022-12-18T22:12:43.953Z,-7.90
2022-12-18T22:16:46.115Z,-7.90
2022-12-18T22:20:49.569Z,-7.90
2022-12-18T22:24:49.656Z,-7.90
2022-12-18T22:29:02.230Z,-7.80
2022-12-18T22:33:02.380Z,-7.80
2022-12-18T22:37:05.440Z,-7.80
2022-12-18T22:41:05.463Z,-7.80
2022-12-18T22:45:05.898Z,-7.70
2022-12-18T22:49:06.282Z,-7.70
2022-12-18T22:53:10.824Z,-7.70
2022-12-18T22:57:11.884Z,-7.70
2022-12-18T23:01:24.045Z,-7.70
2022-12-18T23:05:24.249Z,-7.70
2022-12-18T23:09:26.914Z,-7.70
2022-12-18T23:13:27.150Z,-7.70
2022-12-18T23:17:27.266Z,-7.70
2022-12-18T23:21:27.911Z,-7.70
2022-12-18T23:25:31.795Z,-7.70
2022-12-18T23:29:31.837Z,-7.70
2022-12-18T23:33:32.330Z,-7.70
2022-12-18T23:37:57.543Z,-7.60
2022-12-18T23:41:55.823Z,-7.60
2022-12-18T23:45:56.699Z,-7.60
2022-12-18T23:49:56.753Z,-7.60
2022-12-18T23:53:59.450Z,-7.60
2022-12-18T23:58:02.151Z,-7.60
